Time;durP1;ratioP1;P1;durP2;ratioP2;P2;SDS_P1;SDS_P2;PMS_P1;PMS_P2;Temp;Humidity;BMP_temperature;BMP_pressure;BME280_temperature;BME280_humidity;BME280_pressure;Samples;Min_cycle;Max_cycle;Signal;HPM_P1;HPM_P2
2021/06/17 00:00:34;;;;;;;6.13;5.53;;;;;;;24.09;61.39;96066.25;5093728;28;20628;-62
2021/06/17 00:03:00;;;;;;;5.40;4.90;;;;;;;24.07;60.74;96068.47;5094321;28;20528;-62
2021/06/17 00:05:29;;;;;;;5.50;5.00;;;;;;;24.02;60.97;96072.13;5093884;28;20396;-61
2021/06/17 00:07:54;;;;;;;7.33;5.60;;;;;;;24.03;60.56;96067.53;5093733;28;20193;-62
2021/06/17 00:10:23;;;;;;;5.40;5.00;;;;;;;23.99;60.58;96064.66;5093754;28;20785;-62
2021/06/17 00:12:50;;;;;;;5.60;5.20;;;;;;;23.94;61.41;96062.16;5093173;28;20205;-62
2021/06/17 00:15:17;;;;;;;5.80;5.30;;;;;;;23.91;61.77;96062.00;5093499;28;20833;-62
2021/06/17 00:17:43;;;;;;;5.87;5.40;;;;;;;23.87;61.54;96059.16;5110486;28;20467;-62
2021/06/17 00:20:09;;;;;;;6.73;5.30;;;;;;;23.83;61.87;96058.19;5113415;28;20885;-62
2021/06/17 00:22:35;;;;;;;6.23;5.67;;;;;;;23.81;62.08;96065.78;5106598;28;20510;-62
2021/06/17 00:25:00;;;;;;;5.60;5.20;;;;;;;23.80;62.81;96058.84;5093518;28;20430;-62
2021/06/17 00:27:26;;;;;;;5.80;5.30;;;;;;;23.80;62.91;96066.09;5101655;28;20201;-62
2021/06/17 00:29:52;;;;;;;6.23;5.73;;;;;;;23.80;63.25;96068.78;5111297;28;20178;-62
2021/06/17 00:32:18;;;;;;;5.60;5.10;;;;;;;23.74;62.88;96065.47;5106730;28;20431;-62
2021/06/17 00:34:44;;;;;;;5.80;5.40;;;;;;;23.72;62.97;96064.19;5095592;28;20488;-61
2021/06/17 00:37:09;;;;;;;6.20;5.60;;;;;;;23.68;62.68;96056.00;5093356;28;20201;-62
2021/06/17 00:39:34;;;;;;;5.93;5.40;;;;;;;23.68;62.34;96064.03;5101476;28;20650;-62
2021/06/17 00:42:00;;;;;;;7.10;5.40;;;;;;;23.62;62.01;96062.63;5111988;28;20181;-61
2021/06/17 00:44:25;;;;;;;5.60;5.20;;;;;;;23.62;62.01;96059.94;5113460;28;20189;-62
2021/06/17 00:46:51;;;;;;;5.50;5.10;;;;;;;23.64;62.08;96059.63;5112886;28;20188;-62
2021/06/17 00:49:16;;;;;;;6.73;5.17;;;;;;;23.61;61.96;96057.59;5113692;28;20196;-62
2021/06/17 00:51:41;;;;;;;5.70;5.20;;;;;;;23.57;62.19;96054.72;5104994;28;20174;-62
2021/06/17 00:54:07;;;;;;;5.80;5.23;;;;;;;23.57;61.97;96046.66;5092826;28;20283;-62
2021/06/17 00:56:32;;;;;;;5.50;5.10;;;;;;;23.56;62.17;96047.00;5108002;28;20214;-62
2021/06/17 00:58:59;;;;;;;7.30;6.63;;;;;;;23.52;62.52;96041.47;5113281;28;20317;-61
2021/06/17 01:01:25;;;;;;;5.67;5.27;;;;;;;23.49;62.94;96047.47;5113240;28;20624;-62
2021/06/17 01:03:50;;;;;;;5.87;5.40;;;;;;;23.47;63.22;96049.69;5113130;28;20433;-61
2021/06/17 01:06:16;;;;;;;6.03;5.63;;;;;;;23.42;63.26;96041.78;5113684;28;20169;-61
2021/06/17 01:09:12;;;;;;;6.37;5.77;;;;;;;23.39;63.04;96032.47;5113593;28;20162;-61
2021/06/17 01:12:00;;;;;;;6.43;5.83;;;;;;;23.33;63.72;96041.78;5093646;28;20186;-62
2021/06/17 01:14:32;;;;;;;6.13;5.67;;;;;;;23.27;63.95;96034.16;5093153;28;20886;-62
2021/06/17 01:17:01;;;;;;;6.50;5.90;;;;;;;23.26;63.80;96030.69;5108322;28;20454;-61
2021/06/17 01:19:29;;;;;;;6.40;5.90;;;;;;;23.24;64.16;96029.44;5113349;28;20785;-62
2021/06/17 01:21:58;;;;;;;6.37;5.53;;;;;;;23.20;63.97;96031.16;5113017;28;20415;-62
2021/06/17 01:25:17;;;;;;;6.30;5.80;;;;;;;23.20;63.85;96034.63;5112443;28;20520;-62
2021/06/17 01:28:20;;;;;;;6.60;6.00;;;;;;;23.12;64.25;96035.41;5029966;28;20489;-62
2021/06/17 01:30:58;;;;;;;6.63;6.13;;;;;;;23.10;63.89;96024.19;5080334;28;20423;-62
2021/06/17 01:33:32;;;;;;;7.13;5.30;;;;;;;23.10;63.87;96016.16;5094682;28;20551;-62
2021/06/17 01:36:02;;;;;;;6.13;5.60;;;;;;;23.12;63.70;96010.47;5096614;28;20457;-62
2021/06/17 01:38:29;;;;;;;6.33;5.90;;;;;;;23.11;63.60;96009.69;5096514;28;20454;-61
2021/06/17 01:40:55;;;;;;;12.70;5.87;;;;;;;23.13;63.32;96004.03;5099955;28;20836;-62
2021/06/17 01:43:21;;;;;;;5.73;5.33;;;;;;;23.13;63.44;96001.34;5101940;28;21009;-62
2021/06/17 01:45:48;;;;;;;6.60;6.00;;;;;;;23.08;63.54;95999.59;5097328;28;20401;-61
2021/06/17 01:48:15;;;;;;;5.60;5.10;;;;;;;23.09;63.55;96008.44;5115532;28;20197;-62
2021/06/17 01:50:43;;;;;;;8.33;6.17;;;;;;;23.03;63.86;96001.63;5116613;28;20794;-62
2021/06/17 01:53:09;;;;;;;6.00;5.50;;;;;;;23.01;64.21;96001.19;5115996;28;20438;-62
2021/06/17 01:55:37;;;;;;;4.80;4.40;;;;;;;22.98;64.08;95999.09;5116467;27;20418;-62
2021/06/17 01:58:13;;;;;;;6.87;5.30;;;;;;;22.94;63.88;95996.25;5116401;28;20196;-62
2021/06/17 02:00:43;;;;;;;5.93;5.50;;;;;;;22.94;63.61;95998.94;5098132;28;20419;-62
2021/06/17 02:03:09;;;;;;;5.67;5.27;;;;;;;22.91;63.95;95999.56;5095472;28;20439;-62
2021/06/17 02:05:36;;;;;;;5.60;5.10;;;;;;;22.92;64.17;96011.09;5094573;28;20425;-62
2021/06/17 02:08:03;;;;;;;6.40;5.90;;;;;;;22.89;64.50;96000.97;5096040;28;20218;-61
2021/06/17 02:10:29;;;;;;;7.63;5.43;;;;;;;22.88;64.22;95988.69;5095849;28;20491;-62
2021/06/17 02:12:56;;;;;;;5.67;5.10;;;;;;;22.80;64.30;95994.81;5095278;28;20419;-61
2021/06/17 02:15:27;;;;;;;6.27;5.87;;;;;;;22.79;64.01;95996.69;5111531;28;20442;-61
2021/06/17 02:17:55;;;;;;;6.53;6.00;;;;;;;22.77;63.82;95995.44;5115837;28;20538;-62
2021/06/17 02:20:21;;;;;;;5.83;5.33;;;;;;;22.74;64.10;95994.16;5116385;28;20442;-62
2021/06/17 02:22:49;;;;;;;5.90;5.30;;;;;;;22.73;64.02;95991.78;5114164;28;20771;-61
2021/06/17 02:25:19;;;;;;;5.80;5.30;;;;;;;22.73;64.10;95991.78;5115962;28;20431;-62
2021/06/17 02:27:52;;;;;;;5.30;4.90;;;;;;;22.73;64.68;95992.59;5115987;28;20722;-61
2021/06/17 02:30:18;;;;;;;5.77;5.30;;;;;;;22.69;64.79;96001.56;5114734;28;20408;-60
2021/06/17 02:32:48;;;;;;;6.03;5.50;;;;;;;22.64;65.12;96009.72;5094892;28;20492;-62
2021/06/17 02:35:20;;;;;;;5.80;5.30;;;;;;;22.66;65.33;95997.63;5095326;28;20408;-61
2021/06/17 02:37:51;;;;;;;5.40;4.90;;;;;;;22.61;65.69;96007.69;5106042;28;20457;-62
2021/06/17 02:40:18;;;;;;;6.43;5.93;;;;;;;22.59;65.96;96007.19;5115774;28;20403;-62
2021/06/17 02:42:45;;;;;;;5.60;5.20;;;;;;;22.53;65.90;96006.53;5114918;28;20414;-61
2021/06/17 02:45:11;;;;;;;5.10;4.70;;;;;;;22.49;66.05;96008.22;5115401;28;20475;-62
2021/06/17 02:47:38;;;;;;;5.70;5.30;;;;;;;22.42;66.33;96013.25;5115411;28;20410;-61
2021/06/17 02:50:05;;;;;;;6.10;5.70;;;;;;;22.39;66.36;96021.91;5107054;28;20990;-62
2021/06/17 02:52:31;;;;;;;5.43;5.03;;;;;;;22.36;66.61;96017.16;5103626;28;20780;-62
2021/06/17 02:54:56;;;;;;;5.43;5.03;;;;;;;22.32;66.63;96018.88;5115139;28;20435;-61
2021/06/17 02:57:24;;;;;;;5.97;5.50;;;;;;;22.32;66.06;96016.97;5115291;28;20232;-62
2021/06/17 02:59:55;;;;;;;5.90;5.20;;;;;;;22.23;66.67;96015.38;5115115;28;20165;-62
2021/06/17 03:02:26;;;;;;;4.57;4.27;;;;;;;22.17;66.88;96021.94;5095898;28;20427;-62
2021/06/17 03:05:01;;;;;;;5.30;4.90;;;;;;;22.17;66.00;96017.41;5094861;28;20938;-60
2021/06/17 03:07:33;;;;;;;7.80;5.40;;;;;;;22.17;65.28;96017.41;5094878;28;20453;-61
2021/06/17 03:10:05;;;;;;;5.77;5.27;;;;;;;22.14;65.78;96020.66;5103717;28;20423;-62
2021/06/17 03:12:32;;;;;;;7.33;5.63;;;;;;;22.04;64.69;96025.50;5110251;28;20423;-62
2021/06/17 03:15:01;;;;;;;5.43;5.03;;;;;;;22.03;65.21;96024.69;5094481;28;20424;-61
2021/06/17 03:17:32;;;;;;;4.97;4.47;;;;;;;22.04;65.85;96023.63;5113846;28;20455;-62
2021/06/17 03:20:01;;;;;;;5.40;4.90;;;;;;;22.02;65.62;96019.66;5115057;28;20437;-61
2021/06/17 03:22:28;;;;;;;6.10;5.60;;;;;;;21.97;65.74;96022.47;5114225;28;20407;-62
2021/06/17 03:24:57;;;;;;;5.57;5.07;;;;;;;21.92;66.55;96022.59;5114631;28;20419;-62
2021/06/17 03:27:24;;;;;;;6.00;5.50;;;;;;;21.93;66.98;96032.19;5112619;28;20411;-62
2021/06/17 03:29:51;;;;;;;5.70;5.20;;;;;;;21.95;66.47;96032.69;5113292;28;20473;-61
2021/06/17 03:32:18;;;;;;;5.90;5.40;;;;;;;21.93;66.20;96042.91;5112831;28;20403;-62
2021/06/17 03:34:46;;;;;;;5.70;5.20;;;;;;;21.86;66.84;96039.84;5114554;28;20901;-62
2021/06/17 03:37:16;;;;;;;5.20;4.70;;;;;;;21.84;67.08;96048.19;5097769;28;20868;-62
2021/06/17 03:39:44;;;;;;;4.90;4.50;;;;;;;21.82;67.19;96047.72;5094143;28;20956;-61
2021/06/17 03:42:13;;;;;;;4.93;4.53;;;;;;;21.85;67.36;96043.63;5093928;28;20411;-62
2021/06/17 03:44:39;;;;;;;5.63;5.17;;;;;;;21.87;66.47;96044.91;5094110;28;20420;-62
2021/06/17 03:47:07;;;;;;;4.77;4.37;;;;;;;21.73;63.86;96043.34;5094078;28;20479;-62
2021/06/17 03:49:35;;;;;;;4.27;3.87;;;;;;;21.60;60.39;96044.19;5112421;28;20423;-61
2021/06/17 03:52:01;;;;;;;4.90;4.50;;;;;;;21.65;59.43;96038.75;5112560;28;20416;-61
2021/06/17 03:54:27;;;;;;;4.73;4.00;;;;;;;21.76;58.37;96040.84;5113706;28;20459;-62
2021/06/17 03:56:55;;;;;;;4.80;4.40;;;;;;;21.99;60.45;96039.81;5113846;28;20479;-61
2021/06/17 03:59:28;;;;;;;5.27;4.87;;;;;;;22.14;62.44;96038.63;5114150;28;20414;-62
2021/06/17 04:01:55;;;;;;;4.90;4.50;;;;;;;22.26;63.30;96045.00;5113872;28;20403;-62
2021/06/17 04:04:20;;;;;;;5.40;4.90;;;;;;;22.31;64.83;96047.53;5103612;28;20469;-62
2021/06/17 04:06:51;;;;;;;6.93;4.67;;;;;;;22.20;61.75;96056.13;5100497;28;20497;-61
2021/06/17 04:09:27;;;;;;;4.50;4.20;;;;;;;22.06;61.12;96060.78;5093715;28;20174;-61
2021/06/17 04:12:21;;;;;;;4.17;3.87;;;;;;;22.00;59.76;96062.78;5093414;28;20922;-61
2021/06/17 04:14:51;;;;;;;6.23;3.57;;;;;;;22.15;59.96;96069.66;5091877;28;20840;-62
2021/06/17 04:17:21;;;;;;;4.60;4.20;;;;;;;22.34;62.68;96064.88;5111593;28;20921;-61
2021/06/17 04:19:48;;;;;;;4.03;3.73;;;;;;;22.53;63.26;96065.44;5113866;28;20422;-61
2021/06/17 04:22:16;;;;;;;6.47;4.80;;;;;;;22.66;63.92;96069.16;5112872;28;20427;-62
2021/06/17 04:24:48;;;;;;;5.20;4.80;;;;;;;22.69;64.89;96069.34;5113899;28;20885;-62
2021/06/17 04:27:15;;;;;;;5.37;4.23;;;;;;;22.71;65.70;96071.69;5113913;28;20858;-62
2021/06/17 04:29:41;;;;;;;5.47;4.50;;;;;;;22.74;66.07;96079.13;5113811;28;20402;-62
2021/06/17 04:32:12;;;;;;;4.50;4.10;;;;;;;22.72;66.63;96076.75;5113630;28;20408;-61
2021/06/17 04:34:40;;;;;;;4.60;4.20;;;;;;;22.78;66.85;96085.44;5112375;28;20185;-61
2021/06/17 04:37:11;;;;;;;4.70;4.20;;;;;;;22.84;66.82;96078.84;5104501;28;20443;-62
2021/06/17 04:39:40;;;;;;;5.07;4.60;;;;;;;22.84;67.27;96074.28;5113831;28;20442;-62
2021/06/17 04:42:10;;;;;;;5.57;4.63;;;;;;;22.87;67.12;96079.00;5113306;28;20403;-62
2021/06/17 04:44:44;;;;;;;5.37;4.90;;;;;;;22.91;66.95;96084.53;5113656;28;20584;-62
2021/06/17 04:47:10;;;;;;;4.37;4.03;;;;;;;22.94;66.69;96089.28;5113654;28;20456;-62
2021/06/17 04:49:37;;;;;;;4.90;4.47;;;;;;;22.95;67.10;96078.25;5113707;28;20403;-61
2021/06/17 04:52:04;;;;;;;5.00;4.60;;;;;;;23.00;67.40;96082.69;5100409;28;20452;-62
2021/06/17 04:54:30;;;;;;;5.07;4.67;;;;;;;23.02;67.33;96072.44;5093028;28;20455;-62
2021/06/17 04:56:55;;;;;;;4.80;4.40;;;;;;;23.05;67.09;96069.13;5093255;28;20879;-62
2021/06/17 04:59:21;;;;;;;4.50;4.10;;;;;;;23.07;67.24;96077.66;5093379;28;20528;-62
2021/06/17 05:01:47;;;;;;;3.97;3.70;;;;;;;23.11;67.30;96079.41;5092835;28;20170;-61
2021/06/17 05:04:14;;;;;;;5.60;4.20;;;;;;;23.16;67.42;96075.78;5093235;28;20220;-61
2021/06/17 05:06:42;;;;;;;4.67;4.37;;;;;;;23.20;67.17;96076.75;5102542;28;20900;-62
2021/06/17 05:11:52;;;;;;;5.40;4.87;;;;;;;23.27;65.15;96077.06;5101653;28;20425;-62
2021/06/17 05:14:18;;;;;;;5.77;4.33;;;;;;;23.20;59.17;96084.78;5117232;28;20415;-62
2021/06/17 05:16:44;;;;;;;4.00;3.60;;;;;;;23.22;59.17;96082.59;5117131;28;20169;-62
2021/06/17 05:19:09;;;;;;;4.57;4.17;;;;;;;23.40;60.08;96086.91;5116795;28;20459;-63
2021/06/17 05:21:34;;;;;;;4.00;3.70;;;;;;;23.45;60.80;96084.88;5116749;28;20176;-63
2021/06/17 05:24:01;;;;;;;6.80;4.30;;;;;;;23.55;60.00;96083.78;5117069;28;20190;-63
2021/06/17 05:26:27;;;;;;;5.50;4.17;;;;;;;23.65;61.59;96086.16;5116311;28;20532;-61
2021/06/17 05:28:52;;;;;;;5.30;4.10;;;;;;;23.71;61.47;96097.53;5117144;28;20396;-61
2021/06/17 05:31:19;;;;;;;4.47;4.03;;;;;;;23.79;60.08;96091.38;5117085;28;20173;-63
2021/06/17 05:33:45;;;;;;;5.20;4.67;;;;;;;23.87;61.26;96082.53;5116432;28;20181;-62
2021/06/17 05:36:10;;;;;;;4.47;4.10;;;;;;;23.91;62.08;96092.31;5116861;28;20399;-62
2021/06/17 05:38:36;;;;;;;4.53;4.20;;;;;;;23.97;62.13;96088.34;5117118;28;20280;-62
2021/06/17 05:41:02;;;;;;;4.60;4.30;;;;;;;24.02;62.53;96090.13;5113049;28;20177;-63
2021/06/17 05:43:28;;;;;;;4.30;4.00;;;;;;;24.06;62.98;96091.09;5095915;28;20732;-63
2021/06/17 05:45:53;;;;;;;5.03;3.53;;;;;;;24.03;61.87;96089.81;5096376;28;20404;-62
2021/06/17 05:48:19;;;;;;;3.73;3.43;;;;;;;24.09;61.22;96096.59;5096173;28;20188;-61
2021/06/17 05:50:44;;;;;;;4.20;3.90;;;;;;;24.10;60.33;96090.13;5096141;28;20170;-63
2021/06/17 05:53:10;;;;;;;4.40;4.00;;;;;;;24.10;59.87;96095.47;5095897;28;20542;-63
2021/06/17 05:55:36;;;;;;;5.20;4.70;;;;;;;24.16;60.95;96094.22;5097724;28;20169;-63
2021/06/17 05:58:01;;;;;;;4.37;3.87;;;;;;;24.24;61.29;96100.69;5116337;28;20200;-63
2021/06/17 06:00:27;;;;;;;4.20;3.90;;;;;;;24.25;61.58;96094.19;5116572;28;20181;-61
2021/06/17 06:02:52;;;;;;;4.30;4.00;;;;;;;24.31;60.77;96099.06;5115911;28;20169;-62
2021/06/17 06:05:18;;;;;;;4.30;3.90;;;;;;;24.31;61.88;96103.69;5116285;28;20177;-62
2021/06/17 06:07:44;;;;;;;5.00;4.60;;;;;;;24.25;58.08;96096.88;5116263;28;20248;-62
2021/06/17 06:10:11;;;;;;;4.27;3.97;;;;;;;24.33;58.87;96093.41;5115615;28;20499;-61
2021/06/17 06:12:36;;;;;;;5.90;4.57;;;;;;;24.39;59.13;96100.16;5100817;28;20174;-61
2021/06/17 06:15:04;;;;;;;4.37;4.07;;;;;;;24.43;56.47;96093.84;5106261;28;20449;-63
2021/06/17 06:17:29;;;;;;;4.27;3.97;;;;;;;24.51;56.59;96092.25;5115841;28;20254;-61
2021/06/17 06:19:55;;;;;;;4.07;3.73;;;;;;;24.61;57.85;96097.28;5115335;28;20407;-62
2021/06/17 06:22:20;;;;;;;4.40;3.97;;;;;;;24.70;55.75;96097.25;5115798;28;20256;-63
2021/06/17 06:24:46;;;;;;;4.77;4.20;;;;;;;24.80;56.52;96100.41;5115971;28;20189;-63
2021/06/17 06:27:13;;;;;;;4.87;4.47;;;;;;;24.87;58.00;96098.03;5115864;28;20169;-62
2021/06/17 06:29:38;;;;;;;5.13;4.20;;;;;;;24.92;59.45;96099.72;5114474;28;20161;-63
2021/06/17 06:32:05;;;;;;;4.33;4.03;;;;;;;24.98;60.04;96098.44;5095125;28;20445;-63
2021/06/17 06:34:30;;;;;;;4.30;3.90;;;;;;;25.01;60.70;96100.47;5095294;28;20182;-62
2021/06/17 06:36:56;;;;;;;3.67;3.37;;;;;;;24.99;58.70;96106.19;5095088;28;20411;-61
2021/06/17 06:39:21;;;;;;;6.93;3.83;;;;;;;24.99;55.77;96100.81;5095403;28;20162;-63
2021/06/17 06:41:46;;;;;;;4.67;4.37;;;;;;;25.09;56.30;96102.34;5094899;28;20177;-62
2021/06/17 06:44:13;;;;;;;4.60;4.13;;;;;;;25.11;56.81;96113.56;5095256;28;20258;-63
2021/06/17 06:46:39;;;;;;;4.63;4.33;;;;;;;25.19;56.71;96110.84;5113487;28;20680;-59
2021/06/17 06:49:05;;;;;;;5.00;3.97;;;;;;;25.04;53.24;96116.75;5115348;27;20411;-62
2021/06/17 06:51:31;;;;;;;4.20;3.77;;;;;;;25.04;53.64;96119.44;5115273;28;20396;-63
2021/06/17 06:53:57;;;;;;;4.50;3.73;;;;;;;25.21;53.00;96119.38;5115218;28;20277;-63
2021/06/17 06:56:22;;;;;;;3.90;3.60;;;;;;;25.30;52.41;96122.00;5115363;28;20502;-62
2021/06/17 06:58:48;;;;;;;6.90;4.03;;;;;;;25.51;52.18;96125.56;5115312;28;20186;-61
2021/06/17 07:01:13;;;;;;;4.53;4.13;;;;;;;25.44;52.05;96122.59;5097406;28;20178;-63
2021/06/17 07:03:40;;;;;;;4.70;3.37;;;;;;;25.59;51.91;96118.53;5094283;28;20201;-62
2021/06/17 07:06:06;;;;;;;5.30;3.57;;;;;;;25.69;51.95;96121.63;5094801;28;20162;-63
2021/06/17 07:08:31;;;;;;;3.93;3.63;;;;;;;25.73;52.29;96125.25;5095028;28;20818;-65
2021/06/17 07:10:56;;;;;;;4.10;3.80;;;;;;;26.00;51.96;96130.13;5094536;28;20170;-65
2021/06/17 07:13:22;;;;;;;4.27;3.87;;;;;;;26.08;52.93;96125.81;5094096;28;20229;-64
2021/06/17 07:15:48;;;;;;;3.60;3.30;;;;;;;26.08;52.98;96132.00;5102643;28;20624;-68
2021/06/17 07:18:13;;;;;;;6.73;4.23;;;;;;;26.14;52.71;96127.97;5111294;28;20660;-65
2021/06/17 07:20:39;;;;;;;4.33;3.90;;;;;;;26.20;52.00;96133.94;5114762;28;20169;-68
2021/06/17 07:23:04;;;;;;;4.07;3.70;;;;;;;26.40;51.86;96122.34;5114477;28;20208;-68
2021/06/17 07:25:30;;;;;;;3.90;3.60;;;;;;;26.51;50.54;96126.19;5114657;28;20169;-65
2021/06/17 07:27:56;;;;;;;4.07;3.67;;;;;;;26.64;50.44;96121.63;5114915;28;20173;-64
2021/06/17 07:30:23;;;;;;;4.10;3.80;;;;;;;26.70;49.60;96123.81;5114515;28;20196;-71
2021/06/17 07:32:49;;;;;;;6.33;3.90;;;;;;;26.74;48.79;96132.81;5113351;28;20506;-62
2021/06/17 07:35:16;;;;;;;4.27;3.90;;;;;;;26.85;48.20;96127.78;5114604;28;20549;-66
2021/06/17 07:37:41;;;;;;;3.77;3.53;;;;;;;26.99;48.70;96134.44;5114549;28;20221;-62
2021/06/17 07:40:10;;;;;;;3.93;3.60;;;;;;;26.93;50.60;96137.69;5114594;28;21014;-62
2021/06/17 07:42:35;;;;;;;4.20;3.90;;;;;;;26.76;49.12;96132.50;5113846;28;20173;-66
2021/06/17 07:45:01;;;;;;;3.67;3.37;;;;;;;26.80;48.40;96127.97;5114214;27;20426;-62
2021/06/17 07:47:27;;;;;;;4.00;3.60;;;;;;;27.01;48.32;96126.81;5110676;28;20170;-62
2021/06/17 07:49:52;;;;;;;3.40;3.13;;;;;;;27.28;47.66;96118.03;5114180;28;20775;-66
2021/06/17 07:52:18;;;;;;;4.00;3.70;;;;;;;27.45;48.23;96108.16;5113859;28;20173;-62
2021/06/17 07:54:43;;;;;;;3.57;3.30;;;;;;;27.58;47.93;96105.09;5114071;28;20667;-62
2021/06/17 07:57:09;;;;;;;3.43;3.20;;;;;;;27.63;47.50;96104.84;5113910;28;20165;-63
2021/06/17 07:59:34;;;;;;;4.17;3.67;;;;;;;27.72;47.52;96096.63;5114522;28;20639;-62
2021/06/17 08:02:00;;;;;;;4.77;3.27;;;;;;;27.79;47.18;96102.25;5112903;28;20263;-62
2021/06/17 08:04:27;;;;;;;3.63;3.37;;;;;;;27.78;46.25;96111.47;5109908;28;20193;-62
2021/06/17 08:06:53;;;;;;;3.43;3.23;;;;;;;27.77;45.25;96112.59;5110525;28;20169;-63
2021/06/17 08:09:19;;;;;;;6.07;3.53;;;;;;;27.73;46.20;96109.81;5110447;28;20411;-61
2021/06/17 08:11:48;;;;;;;3.60;3.30;;;;;;;27.90;48.97;96114.16;5109906;28;20414;-62
2021/06/17 08:14:18;;;;;;;6.10;3.23;;;;;;;27.85;44.70;96112.47;5110231;28;20256;-62
2021/06/17 08:16:44;;;;;;;3.13;2.87;;;;;;;27.99;43.21;96126.41;5109281;28;20503;-65
2021/06/17 08:19:09;;;;;;;3.57;3.30;;;;;;;28.16;44.19;96122.66;5093810;28;21240;-65
2021/06/17 08:21:35;;;;;;;3.47;3.17;;;;;;;28.30;44.01;96113.00;5089556;28;20653;-62
2021/06/17 08:24:00;;;;;;;3.87;3.57;;;;;;;28.40;43.00;96114.44;5101220;28;20204;-62
2021/06/17 08:26:26;;;;;;;5.20;3.40;;;;;;;28.43;43.05;96106.44;5110274;28;20248;-62
2021/06/17 08:28:52;;;;;;;3.27;2.97;;;;;;;28.40;41.66;96111.75;5109765;28;20621;-61
2021/06/17 08:31:17;;;;;;;3.60;3.40;;;;;;;28.46;43.58;96109.56;5110097;28;20224;-65
2021/06/17 08:33:42;;;;;;;3.60;3.30;;;;;;;28.58;43.56;96120.34;5109891;28;20439;-66
2021/06/17 08:36:10;;;;;;;5.67;3.70;;;;;;;28.66;45.04;96108.59;5110339;28;20177;-62
2021/06/17 08:38:36;;;;;;;3.60;3.30;;;;;;;28.75;44.96;96112.72;5108838;28;20284;-65
2021/06/17 08:41:03;;;;;;;6.00;4.20;;;;;;;28.69;42.40;96116.00;5110203;28;20411;-65
2021/06/17 08:43:29;;;;;;;3.90;3.60;;;;;;;28.86;44.04;96107.56;5113909;28;20435;-64
2021/06/17 08:45:55;;;;;;;3.70;3.50;;;;;;;28.95;44.12;96110.91;5114291;28;20418;-63
2021/06/17 08:48:20;;;;;;;4.10;3.80;;;;;;;29.06;44.12;96101.13;5114272;28;20165;-65
2021/06/17 08:50:45;;;;;;;3.97;3.67;;;;;;;29.18;44.11;96103.75;5113726;27;20238;-63
2021/06/17 08:53:11;;;;;;;4.30;3.90;;;;;;;29.23;44.45;96103.47;5099030;28;20206;-66
2021/06/17 08:55:38;;;;;;;4.40;3.60;;;;;;;29.33;43.74;96098.31;5093728;28;20941;-66
2021/06/17 08:58:03;;;;;;;3.57;3.30;;;;;;;29.37;42.09;96110.00;5093608;28;20198;-64
2021/06/17 09:00:36;;;;;;;4.27;4.00;;;;;;;29.41;39.96;96107.38;5093673;28;20412;-60
2021/06/17 09:03:10;;;;;;;3.53;3.23;;;;;;;29.61;40.44;96108.22;5106924;28;20870;-62
2021/06/17 09:05:44;;;;;;;4.03;3.83;;;;;;;29.71;41.52;96108.50;5113881;28;20430;-62
2021/06/17 09:08:11;;;;;;;3.57;3.27;;;;;;;29.87;41.06;96119.28;5113095;28;20775;-62
2021/06/17 09:10:41;;;;;;;3.87;3.50;;;;;;;30.00;41.24;96118.03;5114767;28;20435;-61
2021/06/17 09:13:07;;;;;;;5.03;3.60;;;;;;;30.13;41.55;96133.78;5096579;28;20428;-61
2021/06/17 09:15:37;;;;;;;4.13;3.80;;;;;;;30.23;40.53;96137.88;5097021;28;20416;-60
2021/06/17 09:18:24;;;;;;;3.53;3.33;;;;;;;30.46;39.03;96130.59;5096945;28;20450;-62
2021/06/17 09:21:00;;;;;;;4.07;3.73;;;;;;;30.25;37.15;96131.00;5097192;28;20388;-62
2021/06/17 09:23:29;;;;;;;4.23;3.23;;;;;;;30.40;37.67;96123.91;5096211;28;20427;-61
2021/06/17 09:26:04;;;;;;;3.70;3.40;;;;;;;30.61;38.79;96131.66;5101828;28;20472;-62
2021/06/17 09:29:02;;;;;;;4.23;3.93;;;;;;;30.80;40.18;96132.41;5117332;28;20485;-62
2021/06/17 09:31:36;;;;;;;3.90;3.63;;;;;;;30.92;40.25;96134.19;5100497;28;20426;-61
2021/06/17 09:34:06;;;;;;;3.57;3.37;;;;;;;30.98;40.66;96133.53;5116869;28;20446;-62
2021/06/17 09:36:33;;;;;;;4.37;3.70;;;;;;;31.01;39.51;96138.25;5116886;28;20896;-61
2021/06/17 09:39:10;;;;;;;4.20;3.90;;;;;;;31.02;38.12;96147.16;5116596;28;20461;-62
2021/06/17 09:41:47;;;;;;;3.67;3.37;;;;;;;30.92;39.69;96134.19;5102593;27;20431;-62
2021/06/17 09:44:37;;;;;;;3.60;3.40;;;;;;;30.69;38.81;96133.38;5096218;28;20436;-62
2021/06/17 09:47:22;;;;;;;4.00;3.67;;;;;;;30.87;41.11;96138.03;5090213;28;20412;-61
2021/06/17 09:49:48;;;;;;;3.83;3.50;;;;;;;31.11;42.77;96150.44;5096193;28;20420;-62
2021/06/17 09:52:15;;;;;;;4.53;4.00;;;;;;;31.21;40.76;96153.34;5095797;28;20400;-61
2021/06/17 09:54:43;;;;;;;5.70;3.70;;;;;;;31.30;40.91;96161.25;5094839;28;20440;-61
2021/06/17 09:57:19;;;;;;;4.17;3.77;;;;;;;31.46;42.19;96164.63;5111664;27;20419;-62
2021/06/17 09:59:54;;;;;;;4.00;3.70;;;;;;;31.52;40.92;96174.06;5109638;28;20776;-61
2021/06/17 10:02:32;;;;;;;4.00;3.70;;;;;;;31.42;41.60;96174.66;5116094;28;21017;-61
2021/06/17 10:05:15;;;;;;;7.40;4.37;;;;;;;31.37;42.24;96174.97;5116319;28;20469;-61
2021/06/17 10:07:43;;;;;;;4.60;4.00;;;;;;;31.45;40.77;96181.31;5116375;28;20893;-60
2021/06/17 10:10:09;;;;;;;4.60;4.17;;;;;;;31.47;40.79;96174.34;5116338;28;20442;-62
2021/06/17 10:12:36;;;;;;;4.67;4.30;;;;;;;31.44;40.53;96166.94;5115859;28;20403;-61
2021/06/17 10:15:02;;;;;;;4.87;4.07;;;;;;;31.54;40.87;96163.63;5112591;28;20937;-62
2021/06/17 10:17:28;;;;;;;4.70;4.30;;;;;;;31.58;43.68;96163.66;5116174;28;20876;-62
2021/06/17 10:19:56;;;;;;;5.30;4.40;;;;;;;31.63;44.93;96163.34;5116014;27;20949;-61
2021/06/17 10:22:32;;;;;;;6.30;4.30;;;;;;;31.67;47.70;96164.97;5114496;28;20172;-62
2021/06/17 10:24:58;;;;;;;6.00;4.10;;;;;;;31.58;43.84;96164.44;5109483;28;20539;-62
2021/06/17 10:27:45;;;;;;;4.23;3.93;;;;;;;31.69;41.20;96164.63;5095573;28;20493;-62
2021/06/17 10:30:11;;;;;;;4.50;4.10;;;;;;;31.72;40.27;96161.94;5101315;28;20416;-66
2021/06/17 10:32:50;;;;;;;5.20;4.70;;;;;;;31.89;41.21;96161.44;5094986;28;21013;-62
2021/06/17 10:35:29;;;;;;;5.67;4.10;;;;;;;32.02;43.23;96153.84;5095238;28;20165;-62
2021/06/17 10:38:00;;;;;;;4.20;3.90;;;;;;;32.01;40.02;96146.84;5095302;28;20447;-62
2021/06/17 10:40:28;;;;;;;4.50;4.20;;;;;;;32.02;41.48;96146.47;5095143;28;20871;-61
2021/06/17 10:42:55;;;;;;;5.03;4.30;;;;;;;32.07;39.38;96137.97;5094552;28;20415;-61
2021/06/17 10:45:33;;;;;;;5.07;4.30;;;;;;;32.15;43.32;96142.38;5090488;28;20417;-61
2021/06/17 10:48:07;;;;;;;5.78;4.22;;;;;;;32.44;41.93;96151.69;5090513;28;20763;-58
2021/06/17 10:50:46;;;;;;;5.07;4.77;;;;;;;32.38;42.48;96149.66;5091490;28;20177;-58
2021/06/17 10:53:26;;;;;;;5.63;5.23;;;;;;;32.45;40.14;96147.03;5091173;28;20431;-58
2021/06/17 10:56:19;;;;;;;5.97;4.50;;;;;;;32.57;40.31;96149.50;5090808;28;20424;-59
2021/06/17 10:58:45;;;;;;;5.13;4.73;;;;;;;32.66;40.82;96153.50;5098030;28;20556;-59
2021/06/17 11:01:23;;;;;;;5.30;4.80;;;;;;;32.77;40.46;96146.25;5094780;28;20419;-59
2021/06/17 11:03:58;;;;;;;4.90;4.60;;;;;;;32.88;40.74;96155.31;5110958;28;20193;-58
2021/06/17 11:06:50;;;;;;;4.20;3.90;;;;;;;33.00;41.32;96148.81;5091380;28;21088;-58
2021/06/17 11:09:34;;;;;;;5.10;4.80;;;;;;;33.08;40.68;96150.47;5090565;28;20408;-57
2021/06/17 11:12:20;;;;;;;5.00;4.60;;;;;;;33.06;40.49;96144.59;5090848;28;20439;-58
2021/06/17 11:14:50;;;;;;;4.67;4.37;;;;;;;33.20;40.13;96140.06;5090851;28;20440;-56
2021/06/17 11:17:31;;;;;;;5.23;4.77;;;;;;;33.28;40.47;96143.63;5090873;28;20766;-57
2021/06/17 11:19:59;;;;;;;4.83;4.47;;;;;;;33.35;40.42;96137.44;5104486;28;20462;-57
2021/06/17 11:22:34;;;;;;;5.23;4.87;;;;;;;33.44;38.74;96135.97;5105383;28;20424;-57
2021/06/17 11:25:16;;;;;;;4.70;4.40;;;;;;;33.49;39.09;96132.91;5093344;28;20431;-56
2021/06/17 11:28:01;;;;;;;5.63;5.13;;;;;;;33.52;40.17;96134.88;5111156;28;20423;-56
2021/06/17 11:30:38;;;;;;;5.10;4.60;;;;;;;33.55;39.33;96133.34;5111073;28;20487;-57
2021/06/17 11:33:19;;;;;;;5.00;4.60;;;;;;;33.64;37.38;96137.31;5110229;28;20941;-57
2021/06/17 11:35:51;;;;;;;5.37;5.07;;;;;;;33.69;36.80;96145.16;5111009;28;20407;-57
2021/06/17 11:38:29;;;;;;;5.47;4.90;;;;;;;33.76;38.73;96138.94;5110213;28;20455;-57
2021/06/17 11:40:55;;;;;;;5.60;4.60;;;;;;;33.80;39.10;96128.84;5110900;28;21030;-57
2021/06/17 11:43:26;;;;;;;4.77;4.30;;;;;;;33.82;38.38;96131.97;5110004;28;20546;-57
2021/06/17 11:45:51;;;;;;;5.13;4.73;;;;;;;33.93;36.54;96132.81;5110893;27;20544;-56